sensor_id;sensor_type;location;lat;lon;timestamp;pressure;altitude;pressure_sealevel;temperature;humidity
71299;BME280;59083;47.974;21.722;2023-02-21T00:03:12;100033.34;;;6.24;94.73
71299;BME280;59083;47.974;21.722;2023-02-21T00:06:32;100037.44;;;6.27;94.44
71299;BME280;59083;47.974;21.722;2023-02-21T00:09:52;100044.09;;;6.31;94.17
71299;BME280;59083;47.974;21.722;2023-02-21T00:13:12;100036.81;;;6.25;94.35
71299;BME280;59083;47.974;21.722;2023-02-21T00:16:32;100030.03;;;6.22;94.41
71299;BME280;59083;47.974;21.722;2023-02-21T00:19:52;100038.78;;;6.22;94.39
71299;BME280;59083;47.974;21.722;2023-02-21T00:23:12;100038.62;;;6.24;94.57
71299;BME280;59083;47.974;21.722;2023-02-21T00:26:32;100030.53;;;6.26;94.35
71299;BME280;59083;47.974;21.722;2023-02-21T00:29:52;100031.84;;;6.21;94.60
71299;BME280;59083;47.974;21.722;2023-02-21T00:33:12;100028.88;;;6.16;94.84
71299;BME280;59083;47.974;21.722;2023-02-21T00:36:32;100035.16;;;6.15;95.00
71299;BME280;59083;47.974;21.722;2023-02-21T00:39:52;100036.66;;;6.10;95.15
71299;BME280;59083;47.974;21.722;2023-02-21T00:43:12;100030.41;;;6.03;95.48
71299;BME280;59083;47.974;21.722;2023-02-21T00:46:32;100025.28;;;6.01;95.60
71299;BME280;59083;47.974;21.722;2023-02-21T00:49:51;100015.50;;;6.02;95.34
71299;BME280;59083;47.974;21.722;2023-02-21T00:53:11;100010.72;;;5.97;95.46
71299;BME280;59083;47.974;21.722;2023-02-21T00:56:31;100012.72;;;5.95;95.64
71299;BME280;59083;47.974;21.722;2023-02-21T00:59:51;100006.94;;;5.92;95.69
71299;BME280;59083;47.974;21.722;2023-02-21T01:03:11;100006.09;;;5.91;95.69
71299;BME280;59083;47.974;21.722;2023-02-21T01:06:31;100004.41;;;5.82;95.69
71299;BME280;59083;47.974;21.722;2023-02-21T01:09:51;100000.63;;;5.76;95.90
71299;BME280;59083;47.974;21.722;2023-02-21T01:13:11;99995.84;;;5.72;96.06
71299;BME280;59083;47.974;21.722;2023-02-21T01:16:31;100010.37;;;5.68;96.28
71299;BME280;59083;47.974;21.722;2023-02-21T01:19:51;100010.37;;;5.68;96.46
71299;BME280;59083;47.974;21.722;2023-02-21T01:23:11;100008.38;;;5.70;96.34
71299;BME280;59083;47.974;21.722;2023-02-21T01:26:32;100009.06;;;5.64;96.48
71299;BME280;59083;47.974;21.722;2023-02-21T01:29:51;100013.53;;;5.63;96.45
71299;BME280;59083;47.974;21.722;2023-02-21T01:33:12;99994.53;;;5.68;96.15
71299;BME280;59083;47.974;21.722;2023-02-21T01:36:32;99985.59;;;5.69;95.95
71299;BME280;59083;47.974;21.722;2023-02-21T01:39:52;99982.78;;;5.70;95.61
71299;BME280;59083;47.974;21.722;2023-02-21T01:43:20;99977.81;;;5.75;95.15
71299;BME280;59083;47.974;21.722;2023-02-21T01:46:40;99974.53;;;5.73;94.79
71299;BME280;59083;47.974;21.722;2023-02-21T01:50:08;99986.09;;;5.89;93.70
71299;BME280;59083;47.974;21.722;2023-02-21T01:53:29;99986.63;;;5.92;93.15
71299;BME280;59083;47.974;21.722;2023-02-21T01:56:49;99976.34;;;5.89;93.20
71299;BME280;59083;47.974;21.722;2023-02-21T02:00:13;99968.38;;;5.81;93.38
71299;BME280;59083;47.974;21.722;2023-02-21T02:03:33;99968.72;;;5.78;93.37
71299;BME280;59083;47.974;21.722;2023-02-21T02:06:54;99968.72;;;5.78;93.28
71299;BME280;59083;47.974;21.722;2023-02-21T02:10:14;99966.75;;;5.80;92.64
71299;BME280;59083;47.974;21.722;2023-02-21T02:16:55;99957.16;;;5.79;92.42
71299;BME280;59083;47.974;21.722;2023-02-21T02:36:41;99928.75;;;5.89;90.57
71299;BME280;59083;47.974;21.722;2023-02-21T02:40:17;99920.97;;;5.88;90.43
71299;BME280;59083;47.974;21.722;2023-02-21T02:43:30;99915.84;;;5.86;90.38
71299;BME280;59083;47.974;21.722;2023-02-21T02:46:33;99915.50;;;5.81;90.43
71299;BME280;59083;47.974;21.722;2023-02-21T02:49:39;99908.28;;;5.75;90.47
71299;BME280;59083;47.974;21.722;2023-02-21T02:52:52;99906.78;;;5.72;90.68
71299;BME280;59083;47.974;21.722;2023-02-21T02:55:58;99900.50;;;5.73;90.74
71299;BME280;59083;47.974;21.722;2023-02-21T02:59:07;99886.47;;;5.73;90.52
71299;BME280;59083;47.974;21.722;2023-02-21T03:15:25;99871.87;;;5.93;88.88
71299;BME280;59083;47.974;21.722;2023-02-21T03:18:32;99873.22;;;5.97;88.39
71299;BME280;59083;47.974;21.722;2023-02-21T03:21:39;99873.03;;;5.99;88.21
71299;BME280;59083;47.974;21.722;2023-02-21T03:24:44;99890.38;;;6.01;88.09
71299;BME280;59083;47.974;21.722;2023-02-21T03:27:50;99892.38;;;5.99;88.06
71299;BME280;59083;47.974;21.722;2023-02-21T03:30:55;99905.78;;;5.98;88.12
71299;BME280;59083;47.974;21.722;2023-02-21T03:33:59;99912.22;;;5.95;88.27
71299;BME280;59083;47.974;21.722;2023-02-21T03:37:04;99906.78;;;5.97;88.12
71299;BME280;59083;47.974;21.722;2023-02-21T03:40:17;99909.87;;;6.00;87.91
71299;BME280;59083;47.974;21.722;2023-02-21T03:43:20;99916.78;;;6.17;86.78
71299;BME280;59083;47.974;21.722;2023-02-21T03:46:22;99908.81;;;6.26;86.25
71299;BME280;59083;47.974;21.722;2023-02-21T03:49:23;99898.88;;;6.28;85.98
71299;BME280;59083;47.974;21.722;2023-02-21T03:52:25;99907.09;;;6.41;84.96
71299;BME280;59083;47.974;21.722;2023-02-21T03:55:26;99910.41;;;6.43;84.94
71299;BME280;59083;47.974;21.722;2023-02-21T03:58:27;99908.87;;;6.48;84.33
71299;BME280;59083;47.974;21.722;2023-02-21T04:01:28;99916.84;;;6.48;84.39
71299;BME280;59083;47.974;21.722;2023-02-21T04:04:30;99913.69;;;6.45;84.70
71299;BME280;59083;47.974;21.722;2023-02-21T04:07:32;99918.97;;;6.45;84.55
71299;BME280;59083;47.974;21.722;2023-02-21T04:10:33;99904.59;;;6.47;83.84
71299;BME280;59083;47.974;21.722;2023-02-21T04:13:34;99904.91;;;6.44;84.39
71299;BME280;59083;47.974;21.722;2023-02-21T04:16:36;99909.44;;;6.36;84.72
71299;BME280;59083;47.974;21.722;2023-02-21T04:19:37;99905.81;;;6.37;84.83
71299;BME280;59083;47.974;21.722;2023-02-21T04:22:39;99901.66;;;6.34;84.86
71299;BME280;59083;47.974;21.722;2023-02-21T04:25:40;99898.19;;;6.34;84.44
71299;BME280;59083;47.974;21.722;2023-02-21T04:28:42;99905.44;;;6.40;84.14
71299;BME280;59083;47.974;21.722;2023-02-21T04:31:43;99905.59;;;6.38;83.95
71299;BME280;59083;47.974;21.722;2023-02-21T04:34:45;99905.81;;;6.37;83.86
71299;BME280;59083;47.974;21.722;2023-02-21T04:37:46;99896.16;;;6.44;83.82
71299;BME280;59083;47.974;21.722;2023-02-21T04:40:48;99901.72;;;6.57;82.71
71299;BME280;59083;47.974;21.722;2023-02-21T04:43:49;99893.34;;;6.45;83.30
71299;BME280;59083;47.974;21.722;2023-02-21T04:46:50;99884.88;;;6.50;83.33
71299;BME280;59083;47.974;21.722;2023-02-21T04:49:52;99887.56;;;6.42;83.34
71299;BME280;59083;47.974;21.722;2023-02-21T04:52:53;99881.31;;;6.35;83.79
71299;BME280;59083;47.974;21.722;2023-02-21T04:55:54;99879.47;;;6.43;82.97
71299;BME280;59083;47.974;21.722;2023-02-21T04:58:55;99891.88;;;6.43;83.21
71299;BME280;59083;47.974;21.722;2023-02-21T05:01:57;99893.41;;;6.37;83.41
71299;BME280;59083;47.974;21.722;2023-02-21T05:04:59;99890.91;;;6.36;83.38
71299;BME280;59083;47.974;21.722;2023-02-21T05:08:01;99893.56;;;6.36;83.55
71299;BME280;59083;47.974;21.722;2023-02-21T05:11:02;99879.66;;;6.34;83.71
71299;BME280;59083;47.974;21.722;2023-02-21T05:14:03;99886.28;;;6.38;83.53
71299;BME280;59083;47.974;21.722;2023-02-21T05:17:05;99886.91;;;6.40;83.48
71299;BME280;59083;47.974;21.722;2023-02-21T05:20:07;99891.22;;;6.41;83.51
71299;BME280;59083;47.974;21.722;2023-02-21T05:23:11;99894.37;;;6.36;83.76
71299;BME280;59083;47.974;21.722;2023-02-21T05:26:16;99889.34;;;6.49;82.92
71299;BME280;59083;47.974;21.722;2023-02-21T05:29:18;99896.16;;;6.44;83.25
71299;BME280;59083;47.974;21.722;2023-02-21T05:32:20;99884.03;;;6.49;82.96
71299;BME280;59083;47.974;21.722;2023-02-21T05:35:22;99888.47;;;6.57;82.75
71299;BME280;59083;47.974;21.722;2023-02-21T05:38:24;99885.84;;;6.57;82.73
71299;BME280;59083;47.974;21.722;2023-02-21T05:41:26;99880.53;;;6.57;82.61
71299;BME280;59083;47.974;21.722;2023-02-21T05:44:27;99879.25;;;6.53;82.85
71299;BME280;59083;47.974;21.722;2023-02-21T05:47:28;99894.44;;;6.59;82.73
71299;BME280;59083;47.974;21.722;2023-02-21T05:50:29;99884.53;;;6.53;82.88
71299;BME280;59083;47.974;21.722;2023-02-21T05:53:31;99878.28;;;6.46;83.19
71299;BME280;59083;47.974;21.722;2023-02-21T05:56:39;99884.84;;;6.58;82.90
71299;BME280;59083;47.974;21.722;2023-02-21T05:59:41;99893.75;;;6.65;82.59
71299;BME280;59083;47.974;21.722;2023-02-21T06:02:43;99892.75;;;6.66;82.76
71299;BME280;59083;47.974;21.722;2023-02-21T06:05:44;99895.88;;;6.70;82.82
71299;BME280;59083;47.974;21.722;2023-02-21T06:08:47;99897.22;;;7.71;80.36
71299;BME280;59083;47.974;21.722;2023-02-21T06:11:48;99895.13;;;9.33;74.57
71299;BME280;59083;47.974;21.722;2023-02-21T06:14:49;99885.00;;;10.06;69.91
71299;BME280;59083;47.974;21.722;2023-02-21T06:17:51;99885.38;;;10.98;65.60
71299;BME280;59083;47.974;21.722;2023-02-21T06:20:52;99891.47;;;10.78;65.12
71299;BME280;59083;47.974;21.722;2023-02-21T06:23:54;99899.44;;;10.18;67.50
71299;BME280;59083;47.974;21.722;2023-02-21T06:26:55;99908.16;;;9.28;70.50
71299;BME280;59083;47.974;21.722;2023-02-21T06:29:57;99911.94;;;9.40;71.65
71299;BME280;59083;47.974;21.722;2023-02-21T06:32:58;99918.75;;;9.22;72.55
71299;BME280;59083;47.974;21.722;2023-02-21T06:36:09;99917.87;;;9.00;72.65
71299;BME280;59083;47.974;21.722;2023-02-21T06:39:11;99919.56;;;8.65;73.32
71299;BME280;59083;47.974;21.722;2023-02-21T06:42:13;99918.53;;;8.66;73.74
71299;BME280;59083;47.974;21.722;2023-02-21T06:45:15;99920.25;;;8.74;73.93
71299;BME280;59083;47.974;21.722;2023-02-21T06:48:16;99918.09;;;8.62;73.89
71299;BME280;59083;47.974;21.722;2023-02-21T06:51:18;99913.78;;;8.61;73.87
71299;BME280;59083;47.974;21.722;2023-02-21T06:54:19;99922.94;;;8.95;73.76
71299;BME280;59083;47.974;21.722;2023-02-21T06:57:21;99904.59;;;9.00;72.77
71299;BME280;59083;47.974;21.722;2023-02-21T07:00:22;99919.16;;;9.25;72.27
71299;BME280;59083;47.974;21.722;2023-02-21T07:03:26;99918.59;;;9.51;71.07
71299;BME280;59083;47.974;21.722;2023-02-21T07:06:28;99918.53;;;9.44;71.29
71299;BME280;59083;47.974;21.722;2023-02-21T07:09:30;99918.28;;;9.18;72.40
71299;BME280;59083;47.974;21.722;2023-02-21T07:12:32;99922.75;;;9.18;72.08
71299;BME280;59083;47.974;21.722;2023-02-21T07:15:33;99914.59;;;9.62;71.62
71299;BME280;59083;47.974;21.722;2023-02-21T07:18:34;99921.81;;;9.46;71.43
71299;BME280;59083;47.974;21.722;2023-02-21T07:21:35;99916.75;;;9.30;72.20
71299;BME280;59083;47.974;21.722;2023-02-21T07:24:37;99912.94;;;9.61;72.54
71299;BME280;59083;47.974;21.722;2023-02-21T07:27:38;99900.66;;;9.60;72.06
71299;BME280;59083;47.974;21.722;2023-02-21T07:30:39;99909.63;;;9.59;71.86
71299;BME280;59083;47.974;21.722;2023-02-21T07:33:40;99898.75;;;9.81;71.61
71299;BME280;59083;47.974;21.722;2023-02-21T07:36:42;99890.59;;;9.83;71.42
71299;BME280;59083;47.974;21.722;2023-02-21T07:39:43;99895.47;;;9.79;71.96
71299;BME280;59083;47.974;21.722;2023-02-21T07:42:44;99894.25;;;9.82;71.65
71299;BME280;59083;47.974;21.722;2023-02-21T07:45:47;99906.72;;;10.09;72.63
71299;BME280;59083;47.974;21.722;2023-02-21T07:48:49;99906.34;;;10.12;71.54
71299;BME280;59083;47.974;21.722;2023-02-21T07:51:50;99902.69;;;10.20;70.65
71299;BME280;59083;47.974;21.722;2023-02-21T07:54:54;99913.00;;;10.29;71.53
71299;BME280;59083;47.974;21.722;2023-02-21T07:57:56;99907.59;;;10.16;71.92
71299;BME280;59083;47.974;21.722;2023-02-21T08:00:58;99908.28;;;10.31;71.22
71299;BME280;59083;47.974;21.722;2023-02-21T08:03:59;99918.34;;;10.29;71.28
71299;BME280;59083;47.974;21.722;2023-02-21T08:07:02;99917.16;;;10.39;71.07
71299;BME280;59083;47.974;21.722;2023-02-21T08:10:25;99915.91;;;10.34;71.21
71299;BME280;59083;47.974;21.722;2023-02-21T08:13:26;99907.47;;;10.31;71.02
71299;BME280;59083;47.974;21.722;2023-02-21T08:16:28;99916.28;;;10.31;71.61
71299;BME280;59083;47.974;21.722;2023-02-21T08:19:29;99918.75;;;10.33;71.74
71299;BME280;59083;47.974;21.722;2023-02-21T08:22:30;99927.41;;;10.42;71.59
71299;BME280;59083;47.974;21.722;2023-02-21T08:25:31;99928.72;;;10.59;71.02
71299;BME280;59083;47.974;21.722;2023-02-21T08:28:32;99929.34;;;10.61;70.87
71299;BME280;59083;47.974;21.722;2023-02-21T08:31:38;99925.28;;;10.65;70.60
71299;BME280;59083;47.974;21.722;2023-02-21T08:34:40;99921.22;;;10.75;70.42
71299;BME280;59083;47.974;21.722;2023-02-21T08:37:45;99924.69;;;10.76;70.48
71299;BME280;59083;47.974;21.722;2023-02-21T08:40:47;99927.97;;;10.78;69.92
71299;BME280;59083;47.974;21.722;2023-02-21T08:43:48;99937.44;;;10.87;69.74
71299;BME280;59083;47.974;21.722;2023-02-21T08:46:49;99947.69;;;10.90;69.53
71299;BME280;59083;47.974;21.722;2023-02-21T08:49:51;99937.53;;;11.20;69.60
71299;BME280;59083;47.974;21.722;2023-02-21T08:52:52;99941.22;;;11.26;69.10
71299;BME280;59083;47.974;21.722;2023-02-21T08:55:54;99940.00;;;11.35;68.47
71299;BME280;59083;47.974;21.722;2023-02-21T08:58:55;99947.19;;;11.41;68.39
71299;BME280;59083;47.974;21.722;2023-02-21T09:01:56;99948.44;;;11.51;67.76
71299;BME280;59083;47.974;21.722;2023-02-21T09:04:58;99944.94;;;11.51;67.82
71299;BME280;59083;47.974;21.722;2023-02-21T09:08:00;99944.94;;;11.51;67.67
71299;BME280;59083;47.974;21.722;2023-02-21T09:11:02;99943.16;;;11.78;67.40
71299;BME280;59083;47.974;21.722;2023-02-21T09:14:03;99937.59;;;11.79;67.67
71299;BME280;59083;47.974;21.722;2023-02-21T09:17:08;99951.34;;;12.02;67.27
71299;BME280;59083;47.974;21.722;2023-02-21T09:20:14;99945.97;;;12.16;66.02
71299;BME280;59083;47.974;21.722;2023-02-21T09:23:16;99948.66;;;12.09;66.01
71299;BME280;59083;47.974;21.722;2023-02-21T09:26:19;99953.97;;;12.29;65.37
71299;BME280;59083;47.974;21.722;2023-02-21T09:29:31;99953.41;;;12.71;64.58
71299;BME280;59083;47.974;21.722;2023-02-21T09:32:33;99953.69;;;13.01;63.59
71299;BME280;59083;47.974;21.722;2023-02-21T09:35:35;99958.50;;;12.93;63.88
71299;BME280;59083;47.974;21.722;2023-02-21T09:38:37;99969.28;;;13.11;63.67
71299;BME280;59083;47.974;21.722;2023-02-21T09:41:42;99964.78;;;13.05;63.08
71299;BME280;59083;47.974;21.722;2023-02-21T09:44:44;99969.94;;;13.44;63.14
71299;BME280;59083;47.974;21.722;2023-02-21T09:47:48;99968.38;;;13.30;62.42
71299;BME280;59083;47.974;21.722;2023-02-21T09:50:53;99969.13;;;13.44;62.55
71299;BME280;59083;47.974;21.722;2023-02-21T09:53:57;99974.03;;;13.47;62.68
71299;BME280;59083;47.974;21.722;2023-02-21T10:00:57;99961.47;;;13.16;63.68
71299;BME280;59083;47.974;21.722;2023-02-21T10:07:52;99955.50;;;13.45;62.35
71299;BME280;59083;47.974;21.722;2023-02-21T10:22:12;99935.69;;;14.45;58.41
71299;BME280;59083;47.974;21.722;2023-02-21T10:25:25;99930.09;;;14.47;58.45
71299;BME280;59083;47.974;21.722;2023-02-21T10:28:28;99912.88;;;14.55;57.25
71299;BME280;59083;47.974;21.722;2023-02-21T10:31:49;99912.13;;;14.47;57.58
71299;BME280;59083;47.974;21.722;2023-02-21T10:34:53;99906.34;;;14.51;57.58
71299;BME280;59083;47.974;21.722;2023-02-21T10:37:56;99909.28;;;14.79;56.75
71299;BME280;59083;47.974;21.722;2023-02-21T10:41:02;99914.66;;;14.79;56.94
71299;BME280;59083;47.974;21.722;2023-02-21T10:44:18;99908.19;;;14.68;56.75
71299;BME280;59083;47.974;21.722;2023-02-21T10:47:40;99913.16;;;14.83;56.37
71299;BME280;59083;47.974;21.722;2023-02-21T10:57:19;99916.78;;;14.88;56.89
71299;BME280;59083;47.974;21.722;2023-02-21T11:00:53;99901.81;;;14.81;56.68
71299;BME280;59083;47.974;21.722;2023-02-21T11:04:09;99902.53;;;14.88;56.04
71299;BME280;59083;47.974;21.722;2023-02-21T11:07:22;99902.94;;;14.92;56.13
71299;BME280;59083;47.974;21.722;2023-02-21T11:13:34;99908.38;;;14.85;55.80
71299;BME280;59083;47.974;21.722;2023-02-21T11:16:36;99902.81;;;14.98;55.67
71299;BME280;59083;47.974;21.722;2023-02-21T11:19:51;99897.44;;;14.98;55.08
71299;BME280;59083;47.974;21.722;2023-02-21T11:22:53;99903.53;;;15.05;55.68
71299;BME280;59083;47.974;21.722;2023-02-21T11:26:05;99898.22;;;15.17;55.40
71299;BME280;59083;47.974;21.722;2023-02-21T11:29:13;99897.91;;;15.25;55.27
71299;BME280;59083;47.974;21.722;2023-02-21T11:32:22;99899.91;;;15.29;54.27
71299;BME280;59083;47.974;21.722;2023-02-21T11:42:26;99893.78;;;15.52;55.31
71299;BME280;59083;47.974;21.722;2023-02-21T11:45:29;99897.88;;;15.55;54.13
71299;BME280;59083;47.974;21.722;2023-02-21T11:48:36;99904.72;;;15.51;54.21
71299;BME280;59083;47.974;21.722;2023-02-21T11:55:19;99903.94;;;15.62;53.42
71299;BME280;59083;47.974;21.722;2023-02-21T11:58:29;99914.25;;;15.65;53.50
71299;BME280;59083;47.974;21.722;2023-02-21T12:01:49;99902.81;;;15.81;53.29
71299;BME280;59083;47.974;21.722;2023-02-21T12:05:21;99902.31;;;16.07;52.48
71299;BME280;59083;47.974;21.722;2023-02-21T12:08:55;99894.13;;;16.26;51.78
71299;BME280;59083;47.974;21.722;2023-02-21T12:12:17;99894.00;;;16.21;51.22
71299;BME280;59083;47.974;21.722;2023-02-21T12:15:24;99895.56;;;16.17;52.06
71299;BME280;59083;47.974;21.722;2023-02-21T12:25:21;99883.16;;;15.92;52.50
71299;BME280;59083;47.974;21.722;2023-02-21T12:48:23;99878.03;;;15.79;53.10
71299;BME280;59083;47.974;21.722;2023-02-21T12:51:29;99875.22;;;15.74;53.64
71299;BME280;59083;47.974;21.722;2023-02-21T12:54:51;99879.31;;;15.77;53.59
71299;BME280;59083;47.974;21.722;2023-02-21T12:58:03;99868.47;;;15.72;53.23
71299;BME280;59083;47.974;21.722;2023-02-21T13:01:20;99857.47;;;15.73;51.69
71299;BME280;59083;47.974;21.722;2023-02-21T13:04:27;99859.69;;;15.64;52.30
71299;BME280;59083;47.974;21.722;2023-02-21T13:14:16;99843.75;;;15.51;51.17
71299;BME280;59083;47.974;21.722;2023-02-21T13:17:18;99855.47;;;15.57;51.53
71299;BME280;59083;47.974;21.722;2023-02-21T13:20:21;99851.63;;;15.53;51.53
71299;BME280;59083;47.974;21.722;2023-02-21T13:23:48;99852.69;;;15.52;52.66
71299;BME280;59083;47.974;21.722;2023-02-21T13:33:48;99850.19;;;15.50;51.81
71299;BME280;59083;47.974;21.722;2023-02-21T13:36:50;99862.78;;;15.50;51.88
71299;BME280;59083;47.974;21.722;2023-02-21T13:39:58;99854.91;;;15.55;51.54
71299;BME280;59083;47.974;21.722;2023-02-21T13:43:14;99867.53;;;15.78;51.53
71299;BME280;59083;47.974;21.722;2023-02-21T13:49:51;99867.16;;;16.09;50.85
71299;BME280;59083;47.974;21.722;2023-02-21T14:02:27;99856.69;;;16.24;49.24
71299;BME280;59083;47.974;21.722;2023-02-21T14:08:53;99862.81;;;15.96;48.76
71299;BME280;59083;47.974;21.722;2023-02-21T14:12:01;99866.34;;;15.85;49.33
71299;BME280;59083;47.974;21.722;2023-02-21T14:15:06;99874.06;;;15.70;49.83
71299;BME280;59083;47.974;21.722;2023-02-21T14:18:17;99867.75;;;15.53;50.50
71299;BME280;59083;47.974;21.722;2023-02-21T14:21:45;99867.47;;;15.43;51.35
71299;BME280;59083;47.974;21.722;2023-02-21T14:24:49;99863.59;;;15.39;51.62
71299;BME280;59083;47.974;21.722;2023-02-21T14:27:53;99876.19;;;15.26;52.20
71299;BME280;59083;47.974;21.722;2023-02-21T14:31:01;99869.50;;;15.17;53.12
71299;BME280;59083;47.974;21.722;2023-02-21T14:34:02;99875.53;;;15.01;53.47
71299;BME280;59083;47.974;21.722;2023-02-21T14:47:05;99877.13;;;14.61;54.60
71299;BME280;59083;47.974;21.722;2023-02-21T14:50:19;99869.53;;;14.58;55.08
71299;BME280;59083;47.974;21.722;2023-02-21T15:03:20;99869.97;;;14.36;55.96
71299;BME280;59083;47.974;21.722;2023-02-21T15:06:25;99865.34;;;14.25;55.71
71299;BME280;59083;47.974;21.722;2023-02-21T15:09:26;99886.37;;;14.28;55.41
71299;BME280;59083;47.974;21.722;2023-02-21T15:12:27;99892.63;;;14.22;55.45
71299;BME280;59083;47.974;21.722;2023-02-21T15:16:01;99888.06;;;14.23;55.12
71299;BME280;59083;47.974;21.722;2023-02-21T15:19:03;99893.50;;;14.16;55.25
71299;BME280;59083;47.974;21.722;2023-02-21T15:22:22;99891.84;;;14.15;55.47
71299;BME280;59083;47.974;21.722;2023-02-21T15:25:24;99900.94;;;14.14;55.52
71299;BME280;59083;47.974;21.722;2023-02-21T15:28:28;99888.66;;;14.06;56.12
71299;BME280;59083;47.974;21.722;2023-02-21T15:31:40;99891.25;;;13.95;56.78
71299;BME280;59083;47.974;21.722;2023-02-21T15:34:44;99901.59;;;13.91;56.92
71299;BME280;59083;47.974;21.722;2023-02-21T15:37:46;99893.75;;;13.90;57.21
71299;BME280;59083;47.974;21.722;2023-02-21T15:40:49;99898.81;;;13.80;57.50
71299;BME280;59083;47.974;21.722;2023-02-21T15:47:15;99898.03;;;13.73;57.68
71299;BME280;59083;47.974;21.722;2023-02-21T15:53:26;99906.78;;;13.61;57.97
71299;BME280;59083;47.974;21.722;2023-02-21T15:56:27;99922.09;;;13.54;58.05
71299;BME280;59083;47.974;21.722;2023-02-21T15:59:31;99931.00;;;13.48;58.44
71299;BME280;59083;47.974;21.722;2023-02-21T16:02:32;99935.91;;;13.27;59.07
71299;BME280;59083;47.974;21.722;2023-02-21T16:05:34;99940.91;;;13.10;59.80
71299;BME280;59083;47.974;21.722;2023-02-21T16:08:37;99946.25;;;13.10;60.02
71299;BME280;59083;47.974;21.722;2023-02-21T16:14:59;99960.78;;;12.82;60.47
71299;BME280;59083;47.974;21.722;2023-02-21T16:18:08;99961.66;;;12.70;61.00
71299;BME280;59083;47.974;21.722;2023-02-21T16:21:21;99962.72;;;12.56;61.41
71299;BME280;59083;47.974;21.722;2023-02-21T16:24:31;99967.69;;;12.52;61.72
71299;BME280;59083;47.974;21.722;2023-02-21T16:27:32;99959.69;;;12.39;61.93
71299;BME280;59083;47.974;21.722;2023-02-21T16:30:33;99974.72;;;12.40;62.06
71299;BME280;59083;47.974;21.722;2023-02-21T16:33:35;99981.72;;;12.28;62.45
71299;BME280;59083;47.974;21.722;2023-02-21T16:36:37;99985.03;;;12.17;62.84
71299;BME280;59083;47.974;21.722;2023-02-21T16:39:41;99982.34;;;12.10;63.37
71299;BME280;59083;47.974;21.722;2023-02-21T16:42:42;99992.63;;;11.93;63.89
71299;BME280;59083;47.974;21.722;2023-02-21T16:45:44;99993.03;;;11.90;63.91
71299;BME280;59083;47.974;21.722;2023-02-21T16:48:45;99983.56;;;11.68;64.95
71299;BME280;59083;47.974;21.722;2023-02-21T16:51:47;100002.03;;;11.70;65.19
71299;BME280;59083;47.974;21.722;2023-02-21T16:54:48;100009.41;;;11.68;65.05
71299;BME280;59083;47.974;21.722;2023-02-21T16:57:52;100014.97;;;11.66;65.15
71299;BME280;59083;47.974;21.722;2023-02-21T17:01:00;100022.34;;;11.64;65.18
71299;BME280;59083;47.974;21.722;2023-02-21T17:04:08;100024.19;;;11.50;65.89
71299;BME280;59083;47.974;21.722;2023-02-21T17:07:14;100037.75;;;11.49;66.27
71299;BME280;59083;47.974;21.722;2023-02-21T17:10:16;100045.53;;;11.44;66.24
71299;BME280;59083;47.974;21.722;2023-02-21T17:13:17;100054.13;;;11.33;66.84
71299;BME280;59083;47.974;21.722;2023-02-21T17:16:19;100056.94;;;11.25;67.01
71299;BME280;59083;47.974;21.722;2023-02-21T17:19:20;100056.50;;;11.14;67.47
71299;BME280;59083;47.974;21.722;2023-02-21T17:22:21;100057.28;;;11.08;68.06
71299;BME280;59083;47.974;21.722;2023-02-21T17:25:23;100055.66;;;11.07;67.72
71299;BME280;59083;47.974;21.722;2023-02-21T17:28:24;100063.81;;;10.99;68.27
71299;BME280;59083;47.974;21.722;2023-02-21T17:31:26;100069.53;;;10.96;68.47
71299;BME280;59083;47.974;21.722;2023-02-21T17:34:27;100055.56;;;10.88;68.71
71299;BME280;59083;47.974;21.722;2023-02-21T17:37:28;100063.31;;;10.83;69.01
71299;BME280;59083;47.974;21.722;2023-02-21T17:40:29;100064.06;;;10.70;70.42
71299;BME280;59083;47.974;21.722;2023-02-21T17:43:31;100071.75;;;10.52;70.23
71299;BME280;59083;47.974;21.722;2023-02-21T17:46:32;100066.75;;;10.42;71.14
71299;BME280;59083;47.974;21.722;2023-02-21T17:49:33;100075.94;;;10.40;70.96
71299;BME280;59083;47.974;21.722;2023-02-21T17:52:34;100075.31;;;10.38;71.27
71299;BME280;59083;47.974;21.722;2023-02-21T17:55:36;100083.72;;;10.34;71.15
71299;BME280;59083;47.974;21.722;2023-02-21T17:58:37;100083.88;;;10.33;71.46
71299;BME280;59083;47.974;21.722;2023-02-21T18:01:38;100085.50;;;10.27;71.67
71299;BME280;59083;47.974;21.722;2023-02-21T18:04:43;100089.94;;;10.20;72.06
71299;BME280;59083;47.974;21.722;2023-02-21T18:07:47;100094.00;;;10.16;72.19
71299;BME280;59083;47.974;21.722;2023-02-21T18:10:48;100092.22;;;10.02;72.75
71299;BME280;59083;47.974;21.722;2023-02-21T18:13:51;100095.63;;;9.96;72.82
71299;BME280;59083;47.974;21.722;2023-02-21T18:16:52;100093.75;;;9.90;73.29
71299;BME280;59083;47.974;21.722;2023-02-21T18:19:56;100094.50;;;9.84;73.95
71299;BME280;59083;47.974;21.722;2023-02-21T18:22:57;100096.25;;;9.77;74.09
71299;BME280;59083;47.974;21.722;2023-02-21T18:25:59;100086.94;;;9.66;74.37
71299;BME280;59083;47.974;21.722;2023-02-21T18:29:00;100106.13;;;9.62;74.66
71299;BME280;59083;47.974;21.722;2023-02-21T18:32:01;100099.91;;;9.54;74.67
71299;BME280;59083;47.974;21.722;2023-02-21T18:35:02;100111.28;;;9.48;74.84
71299;BME280;59083;47.974;21.722;2023-02-21T18:38:04;100115.69;;;9.41;75.28
71299;BME280;59083;47.974;21.722;2023-02-21T18:41:13;100113.91;;;9.27;76.23
71299;BME280;59083;47.974;21.722;2023-02-21T18:44:14;100122.34;;;9.16;76.65
71299;BME280;59083;47.974;21.722;2023-02-21T18:47:16;100125.53;;;9.11;76.90
71299;BME280;59083;47.974;21.722;2023-02-21T18:50:18;100132.41;;;9.06;76.90
71299;BME280;59083;47.974;21.722;2023-02-21T18:53:20;100127.50;;;9.03;77.20
71299;BME280;59083;47.974;21.722;2023-02-21T18:56:22;100133.53;;;8.97;77.54
71299;BME280;59083;47.974;21.722;2023-02-21T18:59:23;100133.25;;;8.92;77.80